createdAt,value
2022-11-29T00:01:40.137Z,98.60
2022-11-29T00:04:10.329Z,98.60
2022-11-29T00:06:39.081Z,98.60
2022-11-29T00:09:08.791Z,98.60
2022-11-29T00:11:55.800Z,98.60
2022-11-29T00:14:25.138Z,98.60
2022-11-29T00:16:54.545Z,98.70
2022-11-29T00:19:24.173Z,98.70
2022-11-29T00:21:52.461Z,98.70
2022-11-29T00:24:20.686Z,98.80
2022-11-29T00:26:48.870Z,98.80
2022-11-29T00:29:17.029Z,98.80
2022-11-29T00:31:45.747Z,98.80
2022-11-29T00:34:14.265Z,98.80
2022-11-29T00:36:43.721Z,98.80
2022-11-29T00:39:12.942Z,98.80
2022-11-29T00:41:41.442Z,98.90
2022-11-29T00:44:13.892Z,99.20
2022-11-29T00:46:43.496Z,98.90
2022-11-29T00:49:11.564Z,98.90
2022-11-29T00:51:39.803Z,98.90
2022-11-29T00:54:09.177Z,98.90
2022-11-29T00:56:37.250Z,98.90
2022-11-29T00:59:05.283Z,98.80
2022-11-29T01:01:33.537Z,98.80
2022-11-29T01:04:01.792Z,98.80
2022-11-29T01:06:29.967Z,98.80
2022-11-29T01:08:58.070Z,98.80
2022-11-29T01:11:28.824Z,98.80
2022-11-29T01:13:59.824Z,98.80
2022-11-29T01:16:29.024Z,98.80
2022-11-29T01:18:57.280Z,98.80
2022-11-29T01:21:26.006Z,98.80
2022-11-29T01:23:55.214Z,98.90
2022-11-29T01:26:25.634Z,98.90
2022-11-29T01:28:56.743Z,98.90
2022-11-29T01:31:27.045Z,98.90
2022-11-29T01:33:55.934Z,98.90
2022-11-29T01:36:24.564Z,98.80
2022-11-29T01:38:53.199Z,98.80
2022-11-29T01:41:23.212Z,98.80
2022-11-29T01:44:05.280Z,98.80
2022-11-29T01:46:35.745Z,98.80
2022-11-29T01:49:08.719Z,98.80
2022-11-29T01:51:38.455Z,98.80
2022-11-29T01:54:09.337Z,98.80
2022-11-29T01:56:38.787Z,98.80
2022-11-29T01:59:11.418Z,98.70
2022-11-29T02:01:39.857Z,98.70
2022-11-29T02:04:09.303Z,98.70
2022-11-29T02:06:38.156Z,98.70
2022-11-29T02:09:17.246Z,98.80
2022-11-29T02:11:59.765Z,98.70
2022-11-29T02:14:41.111Z,98.70
2022-11-29T02:17:16.063Z,98.80
2022-11-29T02:20:17.926Z,98.80
2022-11-29T02:22:51.422Z,98.80
2022-11-29T02:25:40.798Z,98.80
2022-11-29T02:28:42.648Z,98.90
2022-11-29T02:31:53.148Z,98.90
2022-11-29T02:34:48.173Z,99.00
2022-11-29T02:37:42.805Z,99.00
2022-11-29T02:40:29.735Z,99.10
2022-11-29T02:43:40.912Z,99.10
2022-11-29T02:46:28.984Z,99.10
2022-11-29T02:49:04.908Z,99.20
2022-11-29T02:51:42.694Z,99.20
2022-11-29T02:54:20.423Z,99.20
2022-11-29T02:56:56.249Z,99.20
2022-11-29T02:59:38.519Z,99.20
2022-11-29T03:02:18.276Z,99.50
2022-11-29T03:04:51.481Z,99.20
2022-11-29T03:07:32.633Z,99.20
2022-11-29T03:10:09.592Z,99.20
2022-11-29T03:12:42.636Z,99.30
2022-11-29T03:15:27.745Z,99.30
2022-11-29T03:18:26.814Z,99.20
2022-11-29T03:21:05.500Z,99.20
2022-11-29T03:23:39.135Z,99.20
2022-11-29T03:26:11.095Z,99.20
2022-11-29T03:28:44.330Z,99.20
2022-11-29T03:31:18.750Z,99.20
2022-11-29T03:34:11.269Z,99.20
2022-11-29T03:36:45.534Z,99.20
2022-11-29T03:39:25.787Z,99.20
2022-11-29T03:41:58.506Z,99.20
2022-11-29T03:44:32.895Z,99.20
2022-11-29T03:47:05.578Z,99.20
2022-11-29T03:49:38.764Z,99.20
2022-11-29T03:52:14.400Z,99.20
2022-11-29T03:54:56.301Z,99.20
2022-11-29T03:57:35.318Z,99.20
2022-11-29T04:00:06.883Z,99.20
2022-11-29T04:03:14.586Z,99.20
2022-11-29T04:06:04.018Z,99.20
2022-11-29T04:08:56.173Z,99.20
2022-11-29T04:11:55.772Z,99.20
2022-11-29T04:14:51.064Z,99.20
2022-11-29T04:17:45.919Z,99.30
2022-11-29T04:20:47.962Z,99.30
2022-11-29T04:23:37.998Z,99.30
2022-11-29T04:26:34.661Z,99.40
2022-11-29T04:29:15.180Z,99.40
2022-11-29T04:32:04.367Z,99.40
2022-11-29T04:35:00.026Z,99.50
2022-11-29T04:37:45.455Z,99.50
2022-11-29T04:40:29.158Z,99.50
2022-11-29T04:43:14.696Z,99.50
2022-11-29T04:46:14.147Z,99.50
2022-11-29T04:49:13.357Z,99.50
2022-11-29T04:51:58.070Z,99.50
2022-11-29T04:54:33.492Z,99.50
2022-11-29T04:57:09.449Z,99.50
2022-11-29T04:59:44.383Z,99.70
2022-11-29T05:02:23.268Z,99.50
2022-11-29T05:04:59.297Z,99.50
2022-11-29T05:07:34.038Z,99.50
2022-11-29T05:10:26.528Z,99.50
2022-11-29T05:13:06.205Z,99.50
2022-11-29T05:16:03.512Z,99.60
2022-11-29T05:18:55.388Z,99.60
2022-11-29T05:21:30.526Z,99.60
2022-11-29T05:24:08.233Z,99.60
2022-11-29T05:26:44.902Z,99.60
2022-11-29T05:29:17.677Z,99.60
2022-11-29T05:31:58.614Z,99.60
2022-11-29T05:34:42.506Z,99.60
2022-11-29T05:37:22.750Z,99.60
2022-11-29T05:40:03.736Z,99.60
2022-11-29T05:42:49.841Z,99.70
2022-11-29T05:45:24.665Z,99.60
2022-11-29T05:48:00.537Z,99.70
2022-11-29T05:51:07.316Z,99.70
2022-11-29T05:53:42.740Z,99.70
2022-11-29T05:56:16.181Z,99.70
2022-11-29T05:58:51.058Z,99.70
2022-11-29T06:01:24.056Z,99.70
2022-11-29T06:03:58.194Z,99.70
2022-11-29T06:06:34.831Z,99.70
2022-11-29T06:09:12.497Z,99.70
2022-11-29T06:11:46.083Z,99.70
2022-11-29T06:14:34.275Z,99.70
2022-11-29T06:17:20.124Z,99.60
2022-11-29T06:20:04.287Z,99.60
2022-11-29T06:23:01.671Z,99.70
2022-11-29T06:25:44.254Z,99.70
2022-11-29T06:28:28.199Z,99.70
2022-11-29T06:31:03.678Z,99.90
2022-11-29T06:33:39.512Z,99.70
2022-11-29T06:36:19.880Z,99.60
2022-11-29T06:38:49.721Z,99.60
2022-11-29T06:41:21.308Z,99.60
2022-11-29T06:43:50.016Z,99.60
2022-11-29T06:46:27.946Z,99.60
2022-11-29T06:49:04.615Z,99.60
2022-11-29T06:51:38.843Z,99.60
2022-11-29T06:54:20.558Z,99.60
2022-11-29T06:56:54.692Z,99.70
2022-11-29T06:59:36.778Z,99.70
2022-11-29T07:02:20.433Z,99.70
2022-11-29T07:05:03.832Z,99.70
2022-11-29T07:07:34.255Z,99.80
2022-11-29T07:10:15.123Z,99.70
2022-11-29T07:12:44.055Z,99.80
2022-11-29T07:15:15.860Z,99.80
2022-11-29T07:17:59.761Z,99.80
2022-11-29T07:20:35.486Z,99.80
2022-11-29T07:23:11.986Z,99.80
2022-11-29T07:25:52.981Z,99.80
2022-11-29T07:28:33.363Z,99.70
2022-11-29T07:31:10.486Z,99.70
2022-11-29T07:33:48.583Z,99.70
2022-11-29T07:36:25.230Z,99.70
2022-11-29T07:39:04.194Z,99.70
2022-11-29T07:41:43.337Z,99.70
2022-11-29T07:44:21.349Z,99.60
2022-11-29T07:46:49.469Z,99.60
2022-11-29T07:49:17.697Z,99.60
2022-11-29T07:51:46.029Z,99.50
2022-11-29T07:54:18.864Z,99.50
2022-11-29T07:56:48.404Z,99.60
2022-11-29T07:59:16.515Z,99.60
2022-11-29T08:01:44.697Z,99.50
2022-11-29T08:04:13.740Z,99.50
2022-11-29T08:06:41.878Z,99.40
2022-11-29T08:09:09.881Z,99.40
2022-11-29T08:11:38.171Z,99.40
2022-11-29T08:14:07.664Z,99.30
2022-11-29T08:16:36.638Z,99.30
2022-11-29T08:19:05.085Z,99.30
2022-11-29T08:21:33.251Z,99.30
2022-11-29T08:24:01.259Z,99.20
2022-11-29T08:26:31.859Z,99.20
2022-11-29T08:29:00.140Z,99.20
2022-11-29T08:31:29.567Z,99.20
2022-11-29T08:33:57.721Z,99.10
2022-11-29T08:36:25.990Z,99.10
2022-11-29T08:39:02.240Z,99.10
2022-11-29T08:41:34.121Z,99.10
2022-11-29T08:44:02.278Z,99.00
2022-11-29T08:46:45.528Z,99.00
2022-11-29T08:49:13.782Z,99.00
2022-11-29T08:51:41.920Z,99.00
2022-11-29T08:54:09.385Z,99.00
2022-11-29T08:59:27.091Z,98.90
2022-11-29T09:01:56.534Z,98.90
2022-11-29T09:04:24.834Z,98.80
2022-11-29T09:06:53.110Z,98.80
2022-11-29T09:09:21.130Z,98.70
2022-11-29T09:11:49.803Z,98.70
2022-11-29T09:14:19.333Z,98.80
2022-11-29T09:16:47.344Z,98.80
2022-11-29T09:19:16.934Z,98.80
2022-11-29T09:21:44.998Z,98.80
2022-11-29T09:24:13.000Z,98.80
2022-11-29T09:26:42.233Z,98.70
2022-11-29T09:29:11.505Z,98.60
2022-11-29T09:31:39.686Z,98.60
2022-11-29T09:34:07.990Z,98.60
2022-11-29T09:36:37.528Z,98.50
2022-11-29T09:39:05.584Z,98.50
2022-11-29T09:41:48.694Z,98.50
2022-11-29T09:44:22.819Z,98.50
2022-11-29T09:46:58.934Z,98.40
2022-11-29T09:49:45.957Z,98.40
2022-11-29T09:52:25.006Z,98.30
2022-11-29T09:55:01.668Z,98.30
2022-11-29T09:57:31.825Z,98.20
2022-11-29T10:00:04.348Z,98.20
2022-11-29T10:02:39.438Z,98.10
2022-11-29T10:05:13.741Z,98.00
2022-11-29T10:07:48.649Z,97.90
2022-11-29T10:10:23.686Z,97.90
2022-11-29T10:12:56.759Z,97.90
2022-11-29T10:15:28.329Z,97.80
2022-11-29T10:18:02.329Z,97.70
2022-11-29T10:20:39.191Z,97.60
2022-11-29T10:23:21.956Z,97.50
2022-11-29T10:25:52.707Z,97.60
2022-11-29T10:28:23.552Z,97.50
2022-11-29T10:31:18.630Z,97.50
2022-11-29T10:33:47.835Z,97.50
2022-11-29T10:36:22.163Z,97.30
2022-11-29T10:38:53.138Z,97.30
2022-11-29T10:41:23.640Z,97.30
2022-11-29T10:43:52.941Z,97.30
2022-11-29T10:46:29.445Z,97.40
2022-11-29T10:48:59.826Z,97.30
2022-11-29T10:51:28.371Z,97.30
2022-11-29T10:54:04.632Z,97.20
2022-11-29T10:56:37.643Z,97.20
2022-11-29T10:59:11.936Z,97.10
2022-11-29T11:01:43.446Z,97.10
2022-11-29T11:04:17.732Z,97.00
2022-11-29T11:06:47.804Z,97.00
2022-11-29T11:09:21.892Z,97.00
2022-11-29T11:11:55.311Z,97.00
2022-11-29T11:14:26.289Z,96.90
2022-11-29T11:16:54.773Z,96.90
2022-11-29T11:19:30.282Z,97.00
2022-11-29T11:21:59.861Z,97.00
2022-11-29T11:24:32.052Z,97.00
2022-11-29T11:27:02.146Z,97.00
2022-11-29T11:29:36.251Z,97.00
2022-11-29T11:32:05.904Z,96.90
2022-11-29T11:34:35.361Z,97.10
2022-11-29T11:37:21.120Z,96.90
2022-11-29T11:39:52.262Z,97.00
2022-11-29T11:42:39.511Z,96.90
2022-11-29T11:45:28.342Z,96.90
2022-11-29T11:47:58.874Z,96.90
2022-11-29T11:50:30.661Z,97.00
2022-11-29T11:53:04.420Z,96.90
2022-11-29T11:55:38.976Z,95.80
2022-11-29T11:58:18.754Z,96.30
2022-11-29T12:01:06.016Z,96.50
2022-11-29T12:03:40.802Z,96.40
2022-11-29T12:06:27.071Z,96.50
2022-11-29T12:09:02.141Z,96.70
2022-11-29T12:11:38.249Z,96.40
2022-11-29T12:14:35.323Z,96.60
2022-11-29T12:17:19.621Z,96.70
2022-11-29T12:20:00.349Z,96.70
2022-11-29T12:22:35.195Z,96.50
2022-11-29T12:25:10.284Z,96.50
2022-11-29T12:27:39.707Z,96.50
2022-11-29T12:30:14.046Z,96.50
2022-11-29T12:32:53.584Z,96.60
2022-11-29T12:36:09.709Z,96.60
2022-11-29T12:39:12.137Z,96.70
2022-11-29T12:41:52.475Z,96.40
2022-11-29T12:44:36.577Z,96.30
2022-11-29T12:50:12.908Z,96.00
2022-11-29T12:52:48.929Z,95.90
2022-11-29T12:55:27.209Z,96.00
2022-11-29T12:58:05.684Z,95.70
2022-11-29T13:00:47.600Z,95.70
2022-11-29T13:03:22.225Z,95.70
2022-11-29T13:05:58.660Z,95.70
2022-11-29T13:08:51.570Z,95.40
2022-11-29T13:11:24.651Z,95.70
2022-11-29T13:14:13.785Z,95.80
2022-11-29T13:16:53.757Z,95.60
2022-11-29T13:19:28.515Z,95.60
2022-11-29T13:22:02.434Z,95.50
2022-11-29T13:24:41.149Z,95.70
2022-11-29T13:27:17.000Z,95.60
2022-11-29T13:29:45.261Z,95.60
2022-11-29T13:32:28.712Z,95.70
2022-11-29T13:35:01.561Z,95.70
2022-11-29T13:37:33.856Z,95.90
2022-11-29T13:40:18.061Z,96.00
2022-11-29T13:42:51.051Z,96.10
2022-11-29T13:45:23.674Z,96.10
2022-11-29T13:47:54.981Z,96.10
2022-11-29T13:50:39.881Z,96.20
2022-11-29T13:53:15.729Z,96.10
2022-11-29T13:56:13.976Z,96.20
2022-11-29T13:58:42.288Z,96.00
2022-11-29T14:01:12.676Z,96.10
2022-11-29T14:03:43.843Z,96.20
2022-11-29T14:06:14.903Z,96.30
2022-11-29T14:09:18.411Z,96.20
2022-11-29T14:11:50.229Z,96.00
2022-11-29T14:14:26.931Z,96.00
2022-11-29T14:16:59.595Z,95.60
2022-11-29T14:19:33.771Z,95.60
2022-11-29T14:22:30.349Z,95.80
2022-11-29T14:25:49.681Z,95.80
2022-11-29T14:28:33.344Z,96.00
2022-11-29T14:31:02.608Z,96.40
2022-11-29T14:33:54.616Z,96.30
2022-11-29T14:36:42.854Z,96.50
2022-11-29T14:39:31.137Z,96.40
2022-11-29T14:42:17.005Z,96.50
2022-11-29T14:44:50.922Z,96.60
2022-11-29T14:47:26.423Z,96.60
2022-11-29T14:49:56.714Z,96.60
2022-11-29T14:52:32.573Z,96.30
2022-11-29T14:55:08.935Z,96.60
2022-11-29T14:58:13.753Z,96.60
2022-11-29T15:01:10.771Z,96.50
2022-11-29T15:03:49.852Z,96.40
2022-11-29T15:06:27.030Z,96.50
2022-11-29T15:09:06.887Z,96.90
2022-11-29T15:11:47.908Z,97.10
2022-11-29T15:14:21.429Z,97.20
2022-11-29T15:17:13.413Z,97.30
2022-11-29T15:20:08.937Z,97.30
2022-11-29T15:22:47.937Z,97.30
2022-11-29T15:25:19.382Z,97.40
2022-11-29T15:27:54.819Z,97.40
2022-11-29T15:30:30.443Z,97.40
2022-11-29T15:32:59.743Z,97.40
2022-11-29T15:35:28.180Z,97.40
2022-11-29T15:37:56.730Z,97.20
2022-11-29T15:40:33.011Z,97.20
2022-11-29T15:43:14.225Z,97.30
2022-11-29T15:45:48.338Z,97.30
2022-11-29T15:48:22.175Z,97.40
2022-11-29T15:51:05.170Z,97.50
2022-11-29T15:53:38.084Z,97.50
2022-11-29T15:56:14.783Z,97.60
2022-11-29T15:58:44.576Z,97.60
2022-11-29T16:01:19.999Z,97.60
2022-11-29T16:03:54.256Z,97.60
2022-11-29T16:06:28.015Z,97.70
2022-11-29T16:08:56.394Z,97.70
2022-11-29T16:11:28.744Z,97.70
2022-11-29T16:14:04.308Z,97.60
2022-11-29T16:16:35.391Z,97.70
2022-11-29T16:19:17.616Z,97.70
2022-11-29T16:21:45.934Z,97.70
2022-11-29T16:24:20.449Z,97.60
2022-11-29T16:26:51.789Z,97.30
2022-11-29T16:29:24.519Z,97.30
2022-11-29T16:31:53.150Z,97.40
2022-11-29T16:34:27.518Z,97.60
2022-11-29T16:37:05.145Z,97.50
2022-11-29T16:39:35.481Z,97.50
2022-11-29T16:42:08.411Z,97.50
2022-11-29T16:45:03.028Z,97.60
2022-11-29T16:47:32.787Z,97.60
2022-11-29T16:50:20.179Z,97.60
2022-11-29T16:52:53.449Z,97.60
2022-11-29T16:55:24.649Z,97.60
2022-11-29T16:57:54.073Z,97.70
2022-11-29T17:00:32.026Z,97.70
2022-11-29T17:03:00.834Z,97.80
2022-11-29T17:05:28.987Z,97.80
2022-11-29T17:07:57.426Z,97.80
2022-11-29T17:10:26.586Z,97.80
2022-11-29T17:12:56.109Z,97.80
2022-11-29T17:15:24.520Z,97.80
2022-11-29T17:17:52.564Z,97.80
2022-11-29T17:20:20.711Z,97.80
2022-11-29T17:22:48.870Z,97.80
2022-11-29T17:25:17.096Z,97.80
2022-11-29T17:27:45.201Z,97.70
2022-11-29T17:30:15.521Z,97.80
2022-11-29T17:32:43.676Z,98.00
2022-11-29T17:35:11.687Z,98.00
2022-11-29T17:37:39.796Z,98.00
2022-11-29T17:40:09.570Z,97.90
2022-11-29T17:42:37.705Z,97.80
2022-11-29T17:45:06.203Z,97.70
2022-11-29T17:47:35.622Z,97.80
2022-11-29T17:50:09.636Z,97.90
2022-11-29T17:52:39.174Z,98.00
2022-11-29T17:55:08.439Z,98.00
2022-11-29T17:57:36.576Z,98.10
2022-11-29T18:00:06.731Z,98.10
2022-11-29T18:02:36.204Z,98.10
2022-11-29T18:05:04.444Z,98.20
2022-11-29T18:07:32.632Z,98.20
2022-11-29T18:10:00.758Z,98.20
2022-11-29T18:12:31.272Z,98.20
2022-11-29T18:14:59.421Z,98.20
2022-11-29T18:17:27.458Z,98.20
2022-11-29T18:19:56.880Z,98.20
2022-11-29T18:22:24.963Z,98.40
2022-11-29T18:25:01.134Z,98.20
2022-11-29T18:27:38.125Z,98.20
2022-11-29T18:30:07.814Z,98.20
2022-11-29T18:32:35.839Z,98.20
2022-11-29T18:35:06.584Z,98.30
2022-11-29T18:38:13.053Z,98.30
2022-11-29T18:40:23.049Z,98.40
2022-11-29T18:42:51.079Z,98.40
2022-11-29T18:45:19.217Z,98.40
2022-11-29T18:47:47.336Z,98.40
2022-11-29T18:50:16.939Z,98.40
2022-11-29T18:52:45.049Z,98.40
2022-11-29T18:55:13.077Z,98.40
2022-11-29T18:57:41.295Z,98.50
2022-11-29T19:00:10.496Z,98.40
2022-11-29T19:02:38.650Z,98.40
2022-11-29T19:05:07.443Z,98.40
2022-11-29T19:07:36.957Z,98.40
2022-11-29T19:10:05.953Z,98.40
2022-11-29T19:12:34.070Z,98.30
2022-11-29T19:15:02.206Z,98.20
2022-11-29T19:17:30.674Z,98.20
2022-11-29T19:19:58.869Z,98.20
2022-11-29T19:22:27.000Z,98.10
2022-11-29T19:24:56.461Z,98.10
2022-11-29T19:27:26.073Z,98.10
2022-11-29T19:29:54.164Z,98.20
2022-11-29T19:32:22.247Z,98.10
2022-11-29T19:34:50.343Z,98.10
2022-11-29T19:37:18.617Z,98.10
2022-11-29T19:39:47.219Z,98.10
2022-11-29T19:42:16.849Z,98.00
2022-11-29T19:45:15.325Z,98.00
2022-11-29T19:47:33.333Z,98.10
2022-11-29T19:50:02.857Z,98.10
2022-11-29T19:52:31.123Z,98.10
2022-11-29T19:54:59.739Z,98.10
2022-11-29T19:57:30.944Z,98.10
2022-11-29T19:59:59.029Z,98.10
2022-11-29T20:02:27.833Z,98.20
2022-11-29T20:04:56.046Z,98.20
2022-11-29T20:07:24.252Z,98.20
2022-11-29T20:09:52.360Z,98.20
2022-11-29T20:12:20.750Z,98.20
2022-11-29T20:14:50.285Z,98.20
2022-11-29T20:17:18.526Z,98.20
2022-11-29T20:19:46.993Z,98.20
2022-11-29T20:22:15.751Z,98.20
2022-11-29T20:24:45.773Z,98.20
2022-11-29T20:27:13.961Z,98.20
2022-11-29T20:29:42.019Z,98.20
2022-11-29T20:32:11.670Z,98.20
2022-11-29T20:34:40.403Z,98.20
2022-11-29T20:37:24.648Z,98.20
2022-11-29T20:39:58.166Z,98.20
2022-11-29T20:42:47.935Z,98.20
2022-11-29T20:45:17.321Z,98.10
2022-11-29T20:47:52.027Z,98.10
2022-11-29T20:50:23.972Z,98.10
2022-11-29T20:53:02.369Z,98.10
2022-11-29T20:55:30.625Z,98.20
2022-11-29T20:57:58.656Z,98.10
2022-11-29T21:00:27.060Z,98.10
2022-11-29T21:02:56.456Z,98.10
2022-11-29T21:05:24.691Z,98.10
2022-11-29T21:07:53.185Z,98.10
2022-11-29T21:10:21.900Z,98.00
2022-11-29T21:12:50.718Z,98.00
2022-11-29T21:15:19.890Z,98.10
2022-11-29T21:17:48.559Z,98.10
2022-11-29T21:20:22.506Z,98.10
2022-11-29T21:22:59.522Z,98.10
2022-11-29T21:25:37.388Z,98.10
2022-11-29T21:28:11.163Z,98.00
2022-11-29T21:30:39.922Z,98.00
2022-11-29T21:33:08.806Z,98.00
2022-11-29T21:35:39.787Z,98.00
2022-11-29T21:38:14.337Z,98.00
2022-11-29T21:40:42.420Z,98.10
2022-11-29T21:43:10.485Z,98.10
2022-11-29T21:45:38.604Z,98.20
2022-11-29T21:48:27.559Z,98.10
2022-11-29T21:50:57.631Z,98.10
2022-11-29T21:53:27.860Z,98.20
2022-11-29T21:55:59.728Z,98.20
2022-11-29T21:58:30.289Z,98.20
2022-11-29T22:00:58.886Z,98.20
2022-11-29T22:03:26.919Z,98.20
2022-11-29T22:06:02.369Z,98.30
2022-11-29T22:08:30.458Z,98.30
2022-11-29T22:11:02.759Z,98.30
2022-11-29T22:13:30.910Z,98.40
2022-11-29T22:16:06.805Z,98.40
2022-11-29T22:18:35.464Z,98.30
2022-11-29T22:21:07.438Z,98.30
2022-11-29T22:23:35.827Z,98.40
2022-11-29T22:26:06.020Z,98.40
2022-11-29T22:28:34.953Z,98.40
2022-11-29T22:31:05.820Z,98.40
2022-11-29T22:33:34.197Z,98.40
2022-11-29T22:36:09.959Z,98.40
2022-11-29T22:38:38.812Z,98.40
2022-11-29T22:41:08.964Z,98.30
2022-11-29T22:43:37.828Z,98.30
2022-11-29T22:46:07.388Z,98.30
2022-11-29T22:48:38.863Z,98.30
2022-11-29T22:51:10.494Z,98.30
2022-11-29T22:53:40.422Z,98.50
2022-11-29T22:56:10.756Z,98.30
2022-11-29T22:58:39.404Z,98.30
2022-11-29T23:01:09.508Z,98.30
2022-11-29T23:03:38.766Z,98.30
2022-11-29T23:06:10.641Z,98.20
2022-11-29T23:08:39.608Z,98.20
2022-11-29T23:11:09.903Z,98.20
2022-11-29T23:13:39.912Z,98.20
2022-11-29T23:16:10.180Z,98.20
2022-11-29T23:18:39.885Z,98.20
2022-11-29T23:21:11.076Z,98.30
2022-11-29T23:23:39.253Z,98.30
2022-11-29T23:26:08.787Z,98.30
2022-11-29T23:28:37.310Z,98.30
2022-11-29T23:31:05.405Z,98.30
2022-11-29T23:33:33.479Z,98.20
2022-11-29T23:36:03.800Z,98.20
2022-11-29T23:38:33.383Z,98.10
2022-11-29T23:41:01.848Z,98.20
2022-11-29T23:43:30.854Z,98.20
2022-11-29T23:45:58.996Z,98.20
2022-11-29T23:48:27.525Z,98.10
2022-11-29T23:50:55.619Z,98.10
2022-11-29T23:53:23.700Z,98.10
2022-11-29T23:55:58.828Z,98.10
2022-11-29T23:58:27.561Z,98.10
